Time;durP1;ratioP1;P1;durP2;ratioP2;P2;SDS_P1;SDS_P2;PMS_P1;PMS_P2;Temp;Humidity;BMP_temperature;BMP_pressure;BME280_temperature;BME280_humidity;BME280_pressure;Samples;Min_cycle;Max_cycle;Signal;HPM_P1;HPM_P2
2023/10/29 00:02:09;;;;;;;2.90;2.70;;;;;;;10.05;100.00;100276.54;105753;1254;71498;-74
2023/10/29 00:04:37;;;;;;;10.90;3.70;;;;;;;10.05;100.00;100276.02;105802;1253;60809;-74
2023/10/29 00:07:04;;;;;;;3.80;2.90;;;;;;;10.05;100.00;100279.15;105744;1251;60067;-74
2023/10/29 00:09:32;;;;;;;4.30;3.50;;;;;;;10.05;100.00;100284.09;105750;1256;73057;-73
2023/10/29 00:12:00;;;;;;;6.40;3.70;;;;;;;10.04;100.00;100287.23;105754;1251;62252;-75
2023/10/29 00:14:28;;;;;;;4.00;3.60;;;;;;;10.03;100.00;100290.46;105900;1254;70140;-73
2023/10/29 00:16:57;;;;;;;6.30;3.90;;;;;;;10.02;100.00;100293.67;105908;1252;60149;-75
2023/10/29 00:19:24;;;;;;;6.20;4.00;;;;;;;10.02;100.00;100294.73;105901;1251;59702;-74
2023/10/29 00:21:52;;;;;;;5.50;4.20;;;;;;;10.01;100.00;100300.23;105785;1257;73064;-74
2023/10/29 00:24:22;;;;;;;5.60;4.00;;;;;;;10.00;100.00;100298.55;105936;1255;64348;-77
2023/10/29 00:26:50;;;;;;;6.80;4.40;;;;;;;9.98;100.00;100303.87;105899;1256;72661;-76
2023/10/29 00:29:17;;;;;;;5.40;4.80;;;;;;;9.96;100.00;100303.98;105728;1254;60419;-74
2023/10/29 00:31:45;;;;;;;8.80;6.60;;;;;;;9.96;100.00;100300.54;105871;1256;59648;-73
2023/10/29 00:34:12;;;;;;;6.40;5.70;;;;;;;9.95;100.00;100298.66;105993;1251;71628;-73
2023/10/29 00:36:40;;;;;;;10.30;5.90;;;;;;;9.94;100.00;100300.45;105731;1256;64135;-73
2023/10/29 00:39:07;;;;;;;9.00;6.40;;;;;;;9.93;100.00;100304.16;105736;1256;70471;-72
2023/10/29 00:41:35;;;;;;;10.00;5.70;;;;;;;9.93;100.00;100300.17;105853;1251;61643;-73
2023/10/29 00:44:02;;;;;;;8.10;5.90;;;;;;;9.92;100.00;100298.14;105833;1256;59963;-72
2023/10/29 00:46:30;;;;;;;6.90;5.00;;;;;;;9.91;100.00;100302.55;105805;1250;73048;-73
2023/10/29 00:48:58;;;;;;;6.70;5.50;;;;;;;9.90;100.00;100298.11;105859;1257;63576;-73
2023/10/29 00:51:25;;;;;;;6.40;4.80;;;;;;;9.88;100.00;100297.15;105880;1257;72517;-72
2023/10/29 00:53:53;;;;;;;5.10;3.90;;;;;;;9.86;100.00;100299.52;105655;1251;60574;-75
2023/10/29 00:56:22;;;;;;;5.40;4.50;;;;;;;9.84;100.00;100299.30;105868;1251;59651;-76
2023/10/29 00:58:51;;;;;;;5.30;3.40;;;;;;;9.83;100.00;100302.36;105740;1251;73151;-74
2023/10/29 01:01:19;;;;;;;4.50;4.10;;;;;;;9.81;100.00;100304.44;105939;1251;62318;-72
2023/10/29 01:03:47;;;;;;;5.40;4.20;;;;;;;9.79;100.00;100302.48;105909;1254;71622;-72
2023/10/29 01:06:15;;;;;;;4.60;3.90;;;;;;;9.76;100.00;100304.89;106002;1251;60228;-74
2023/10/29 01:08:43;;;;;;;7.70;4.90;;;;;;;9.74;100.00;100309.05;105868;1251;59697;-76
2023/10/29 01:11:11;;;;;;;7.50;5.20;;;;;;;9.72;100.00;100312.48;105788;1255;71788;-77
2023/10/29 01:13:38;;;;;;;6.30;4.90;;;;;;;9.71;100.00;100313.23;105888;1251;62466;-73
2023/10/29 01:16:06;;;;;;;5.60;4.70;;;;;;;9.70;100.00;100315.04;105798;1254;72803;-72
2023/10/29 01:18:36;;;;;;;10.10;5.10;;;;;;;9.69;100.00;100321.38;105847;1256;61690;-72
2023/10/29 01:21:03;;;;;;;9.20;5.00;;;;;;;9.69;100.00;100320.88;105886;1256;60089;-76
2023/10/29 01:23:31;;;;;;;7.00;5.00;;;;;;;9.68;100.00;100325.48;105727;1258;73147;-76
2023/10/29 01:25:59;;;;;;;7.80;5.30;;;;;;;9.67;100.00;100328.48;105904;1251;61966;-75
2023/10/29 01:28:27;;;;;;;11.80;6.10;;;;;;;9.67;100.00;100330.41;105858;1256;72720;-72
2023/10/29 01:30:55;;;;;;;8.40;6.00;;;;;;;9.66;100.00;100330.80;105916;1256;60495;-73
2023/10/29 01:33:23;;;;;;;8.90;5.80;;;;;;;9.66;100.00;100329.10;105763;1258;59535;-73
2023/10/29 01:35:51;;;;;;;10.90;6.20;;;;;;;9.65;100.00;100325.98;105914;1251;71908;-75
2023/10/29 01:38:18;;;;;;;8.10;5.60;;;;;;;9.64;100.00;100328.48;105831;1251;62470;-76
2023/10/29 01:40:45;;;;;;;12.50;6.90;;;;;;;9.62;100.00;100327.55;105913;1251;71759;-73
2023/10/29 01:43:13;;;;;;;9.60;6.00;;;;;;;9.63;100.00;100330.16;105959;1252;60580;-75
2023/10/29 01:45:40;;;;;;;8.90;5.60;;;;;;;9.62;100.00;100338.42;105925;1252;60667;-76
2023/10/29 01:48:08;;;;;;;8.00;5.30;;;;;;;9.60;100.00;100338.66;105746;1251;73453;-72
2023/10/29 01:50:36;;;;;;;11.50;5.60;;;;;;;9.60;100.00;100338.52;105880;1250;61484;-73
2023/10/29 01:53:04;;;;;;;8.40;5.40;;;;;;;9.59;100.00;100344.52;105798;1257;72969;-74
2023/10/29 01:55:36;;;;;;;9.70;4.90;;;;;;;9.58;100.00;100349.63;105710;1254;60646;-75
2023/10/29 01:58:04;;;;;;;5.70;4.40;;;;;;;9.58;100.00;100348.22;105723;1256;59731;-76
2023/10/29 02:00:32;;;;;;;9.70;5.40;;;;;;;9.57;100.00;100347.42;105730;1256;71819;-76
2023/10/29 02:02:59;;;;;;;9.60;5.40;;;;;;;9.57;100.00;100354.27;105706;1251;62686;-74
2023/10/29 02:05:27;;;;;;;10.70;5.50;;;;;;;9.56;100.00;100353.77;105644;1254;72780;-77
2023/10/29 02:07:55;;;;;;;9.60;6.30;;;;;;;9.55;100.00;100359.23;105785;1252;60551;-76
2023/10/29 02:10:25;;;;;;;13.90;6.80;;;;;;;9.54;100.00;100358.04;105836;1256;60443;-74
2023/10/29 02:12:53;;;;;;;18.90;8.70;;;;;;;9.53;100.00;100359.50;105822;1256;74142;-75
2023/10/29 02:15:20;;;;;;;13.80;8.60;;;;;;;9.53;100.00;100361.63;105864;1256;63698;-75
2023/10/29 02:17:48;;;;;;;16.60;10.10;;;;;;;9.51;100.00;100361.73;105904;1256;72598;-73
2023/10/29 02:20:17;;;;;;;23.60;11.70;;;;;;;9.50;100.00;100364.95;105886;1252;60552;-73
2023/10/29 02:22:44;;;;;;;17.10;10.10;;;;;;;9.49;100.00;100372.00;105732;1251;60450;-75
2023/10/29 02:25:11;;;;;;;19.60;11.80;;;;;;;9.48;100.00;100379.04;105851;1251;73908;-73
2023/10/29 02:27:39;;;;;;;26.90;11.70;;;;;;;9.47;100.00;100381.89;105789;1251;63678;-74
2023/10/29 02:30:07;;;;;;;21.00;13.10;;;;;;;9.45;100.00;100387.71;105715;1251;71464;-73
2023/10/29 02:32:35;;;;;;;15.60;10.40;;;;;;;9.44;100.00;100393.02;105708;1256;61670;-72
2023/10/29 02:35:03;;;;;;;17.40;11.90;;;;;;;9.44;100.00;100400.58;105688;1251;60459;-74
2023/10/29 02:37:31;;;;;;;20.90;10.30;;;;;;;9.43;100.00;100403.38;105667;1251;73943;-75
2023/10/29 02:39:58;;;;;;;17.20;8.50;;;;;;;9.43;100.00;100404.45;105693;1251;62596;-73
2023/10/29 02:42:26;;;;;;;5.40;4.20;;;;;;;9.43;100.00;100407.59;105750;1256;72710;-75
2023/10/29 02:44:54;;;;;;;10.40;5.50;;;;;;;9.43;100.00;100419.25;105800;1256;60606;-76
2023/10/29 02:47:21;;;;;;;6.80;4.30;;;;;;;9.44;100.00;100424.98;105868;1256;60412;-75
2023/10/29 02:49:49;;;;;;;9.00;5.00;;;;;;;9.45;100.00;100432.60;105788;1256;72763;-75
2023/10/29 02:52:17;;;;;;;8.80;5.90;;;;;;;9.45;100.00;100435.76;105820;1259;63546;-74
2023/10/29 02:54:44;;;;;;;11.80;6.30;;;;;;;9.45;100.00;100442.55;106002;1255;71955;-74
2023/10/29 02:57:13;;;;;;;11.40;7.70;;;;;;;9.45;100.00;100449.33;105816;1252;60459;-75
2023/10/29 02:59:41;;;;;;;12.70;6.70;;;;;;;9.46;100.00;100450.85;105857;1256;60338;-72
2023/10/29 03:02:08;;;;;;;8.20;6.10;;;;;;;9.47;100.00;100457.79;105686;1257;72857;-76
2023/10/29 03:04:36;;;;;;;7.90;3.90;;;;;;;9.47;100.00;100456.19;105749;1257;63549;-74
2023/10/29 03:07:03;;;;;;;4.90;4.30;;;;;;;9.49;100.00;100464.80;105864;1257;71493;-75
2023/10/29 03:09:31;;;;;;;4.80;3.20;;;;;;;9.51;100.00;100463.14;105778;1257;61930;-75
2023/10/29 03:11:58;;;;;;;4.80;3.90;;;;;;;9.52;100.00;100470.59;105758;1256;60463;-75
2023/10/29 03:14:26;;;;;;;3.00;2.80;;;;;;;9.53;100.00;100470.52;105810;1251;72368;-74
2023/10/29 03:16:54;;;;;;;3.30;2.90;;;;;;;9.51;100.00;100469.21;105895;1255;62617;-74
2023/10/29 03:19:22;;;;;;;4.50;3.10;;;;;;;9.48;100.00;100467.48;105761;1251;71833;-72
2023/10/29 03:21:49;;;;;;;4.50;3.20;;;;;;;9.45;100.00;100472.02;105747;1257;61814;-75
2023/10/29 03:24:17;;;;;;;3.80;3.00;;;;;;;9.42;100.00;100474.48;105763;1256;60340;-75
2023/10/29 03:26:45;;;;;;;3.60;2.80;;;;;;;9.39;100.00;100481.29;105874;1257;71416;-75
2023/10/29 03:29:12;;;;;;;6.40;3.20;;;;;;;9.35;100.00;100483.06;105846;1253;62409;-75
2023/10/29 03:31:40;;;;;;;3.50;3.00;;;;;;;9.31;100.00;100483.61;105910;1251;72174;-75
2023/10/29 03:34:08;;;;;;;8.10;3.20;;;;;;;9.27;100.00;100493.45;105732;1251;61035;-77
2023/10/29 03:36:35;;;;;;;5.70;3.50;;;;;;;9.24;100.00;100495.73;105760;1251;60550;-75
2023/10/29 03:39:05;;;;;;;3.70;2.60;;;;;;;9.19;100.00;100492.02;105722;1251;72599;-74
2023/10/29 03:41:32;;;;;;;4.20;2.40;;;;;;;9.14;100.00;100493.16;105765;1251;62160;-77
2023/10/29 03:44:00;;;;;;;5.30;3.00;;;;;;;9.10;100.00;100491.81;105673;1256;72653;-76
2023/10/29 03:46:27;;;;;;;3.10;2.80;;;;;;;9.05;100.00;100499.24;105785;1257;61307;-74
2023/10/29 03:48:55;;;;;;;4.20;2.90;;;;;;;9.01;100.00;100503.65;105840;1257;60335;-73
2023/10/29 03:51:25;;;;;;;7.90;2.90;;;;;;;8.97;100.00;100512.22;105858;1256;72097;-75
2023/10/29 03:53:52;;;;;;;3.80;2.70;;;;;;;8.95;100.00;100513.05;105955;1257;62842;-75
2023/10/29 03:56:20;;;;;;;5.40;4.20;;;;;;;8.92;100.00;100520.86;105835;1253;71421;-75
2023/10/29 03:58:48;;;;;;;3.70;3.20;;;;;;;8.89;100.00;100520.70;105874;1251;60559;-74
2023/10/29 04:01:16;;;;;;;5.90;5.20;;;;;;;8.85;100.00;100519.84;105928;1251;60492;-75
2023/10/29 04:03:43;;;;;;;3.30;3.00;;;;;;;8.82;100.00;100523.52;105869;1252;73806;-75
2023/10/29 04:06:11;;;;;;;3.70;2.50;;;;;;;8.79;100.00;100519.13;105829;1251;62476;-75
2023/10/29 04:08:39;;;;;;;4.30;3.00;;;;;;;8.77;100.00;100520.48;105886;1251;72759;-76
2023/10/29 04:11:06;;;;;;;3.50;2.40;;;;;;;8.75;100.00;100530.88;105807;1254;60571;-75
2023/10/29 04:13:33;;;;;;;4.60;3.10;;;;;;;8.73;100.00;100539.70;105782;1252;60724;-74
2023/10/29 04:16:01;;;;;;;3.80;2.50;;;;;;;8.71;100.00;100540.31;105840;1251;72675;-72
2023/10/29 04:18:31;;;;;;;5.10;2.80;;;;;;;8.69;100.00;100536.41;105759;1256;62457;-76
2023/10/29 04:21:03;;;;;;;4.10;2.50;;;;;;;8.67;100.00;100526.40;105761;1255;73847;-75
2023/10/29 04:23:31;;;;;;;5.80;3.30;;;;;;;8.64;100.00;100525.31;105856;1256;60929;-72
2023/10/29 04:25:58;;;;;;;7.50;2.80;;;;;;;8.63;100.00;100529.56;105796;1254;60329;-75
2023/10/29 04:28:26;;;;;;;3.30;2.80;;;;;;;8.63;100.00;100535.52;105847;1256;73843;-75
2023/10/29 04:30:55;;;;;;;3.00;2.60;;;;;;;8.62;100.00;100536.95;105844;1251;62784;-77
2023/10/29 04:33:23;;;;;;;11.70;3.20;;;;;;;8.62;100.00;100535.55;105866;1251;72724;-73
2023/10/29 04:35:51;;;;;;;4.60;2.90;;;;;;;8.62;100.00;100539.20;105823;1256;60546;-77
2023/10/29 04:38:19;;;;;;;4.60;3.00;;;;;;;8.62;100.00;100548.59;109674;1251;59254;-73
2023/10/29 04:40:46;;;;;;;3.50;2.90;;;;;;;8.63;100.00;100550.64;109616;1256;73878;-73
2023/10/29 04:43:14;;;;;;;4.50;2.80;;;;;;;8.65;100.00;100554.23;109628;1251;62549;-73
2023/10/29 04:45:41;;;;;;;4.70;3.30;;;;;;;8.67;100.00;100558.13;109639;1251;72656;-74
2023/10/29 04:48:09;;;;;;;6.80;3.00;;;;;;;8.69;100.00;100560.61;109632;1251;61074;-73
2023/10/29 04:50:39;;;;;;;4.40;3.00;;;;;;;8.73;100.00;100561.30;109596;1251;59398;-74
2023/10/29 04:53:07;;;;;;;6.10;3.60;;;;;;;8.76;100.00;100566.20;109551;1251;72546;-73
2023/10/29 04:55:35;;;;;;;6.00;3.60;;;;;;;8.79;100.00;100575.61;109591;1250;62258;-73
2023/10/29 04:58:02;;;;;;;4.30;3.50;;;;;;;8.83;100.00;100577.67;109632;1251;71487;-74
2023/10/29 05:00:30;;;;;;;6.40;3.70;;;;;;;8.87;100.00;100583.22;109597;1251;61656;-74
2023/10/29 05:02:57;;;;;;;6.20;4.50;;;;;;;8.91;100.00;100590.30;109653;1251;59991;-73
2023/10/29 05:05:25;;;;;;;4.60;3.60;;;;;;;8.95;100.00;100587.66;109623;1251;74079;-73
2023/10/29 05:07:53;;;;;;;4.50;3.40;;;;;;;8.99;100.00;100592.67;109618;1251;63829;-75
2023/10/29 05:10:20;;;;;;;5.30;4.10;;;;;;;9.03;100.00;100594.73;109582;1256;72001;-75
2023/10/29 05:12:49;;;;;;;5.00;4.10;;;;;;;9.07;100.00;100593.81;109660;1251;60091;-74
2023/10/29 05:15:17;;;;;;;6.50;5.00;;;;;;;9.11;100.00;100594.29;109651;1251;59969;-75
2023/10/29 05:17:47;;;;;;;6.70;4.20;;;;;;;9.16;100.00;100591.77;109667;1251;74249;-75
2023/10/29 05:20:17;;;;;;;8.70;4.10;;;;;;;9.21;100.00;100590.30;109617;1251;62972;-73
2023/10/29 05:22:45;;;;;;;6.30;3.70;;;;;;;9.29;100.00;100588.23;109644;1251;72709;-73
2023/10/29 05:25:12;;;;;;;5.90;4.20;;;;;;;9.44;100.00;100579.94;109590;1256;61754;-73
2023/10/29 05:27:51;;;;;;;3.90;3.40;;;;;;;9.64;100.00;100578.45;109657;1251;58300;-73
2023/10/29 05:30:19;;;;;;;4.50;3.20;;;;;;;9.90;100.00;100576.63;109646;1251;74344;-75
2023/10/29 05:32:46;;;;;;;5.50;3.20;;;;;;;10.13;100.00;100580.31;109686;1251;62736;-74
2023/10/29 05:35:16;;;;;;;6.50;3.00;;;;;;;10.34;100.00;100583.16;109537;1251;72434;-74
2023/10/29 05:37:43;;;;;;;7.60;3.40;;;;;;;10.55;100.00;100584.33;109562;1251;61722;-75
2023/10/29 05:40:11;;;;;;;4.00;2.40;;;;;;;10.87;100.00;100583.80;109655;1251;60125;-75
2023/10/29 05:42:39;;;;;;;6.90;3.10;;;;;;;11.27;100.00;100589.88;109609;1251;72857;-76
2023/10/29 05:45:06;;;;;;;6.70;3.40;;;;;;;11.80;100.00;100593.65;109600;1251;62496;-74
2023/10/29 05:47:34;;;;;;;4.00;3.40;;;;;;;12.57;100.00;100595.83;109669;1251;72905;-74
2023/10/29 05:50:04;;;;;;;4.70;3.10;;;;;;;13.49;100.00;100591.30;109586;1251;60544;-75
2023/10/29 05:52:34;;;;;;;5.00;3.20;;;;;;;14.44;100.00;100588.85;109586;1251;60036;-76
2023/10/29 05:55:02;;;;;;;7.70;4.70;;;;;;;15.38;100.00;100592.23;109609;1256;73958;-74
2023/10/29 05:57:30;;;;;;;7.70;6.10;;;;;;;16.21;100.00;100598.26;109748;1250;62467;-74
2023/10/29 05:59:57;;;;;;;6.20;3.80;;;;;;;16.99;99.72;100602.10;109630;1251;70712;-75
2023/10/29 06:02:25;;;;;;;3.60;2.40;;;;;;;17.63;96.04;100611.31;109630;1253;60011;-76
2023/10/29 06:04:53;;;;;;;4.00;2.90;;;;;;;18.19;90.05;100622.30;109705;1250;60081;-75
2023/10/29 06:07:20;;;;;;;4.40;2.30;;;;;;;18.42;83.49;100628.96;109622;1251;71809;-76
2023/10/29 06:09:48;;;;;;;4.30;3.10;;;;;;;18.30;79.59;100630.00;109623;1250;62386;-75
2023/10/29 06:12:15;;;;;;;4.20;3.00;;;;;;;17.97;78.97;100634.55;109682;1256;71893;-76
2023/10/29 06:14:45;;;;;;;4.70;3.00;;;;;;;17.59;80.96;100649.98;109627;1251;58914;-75
2023/10/29 06:17:13;;;;;;;8.10;3.60;;;;;;;17.16;83.07;100651.50;109656;1251;60017;-76
2023/10/29 06:19:53;;;;;;;4.60;2.90;;;;;;;16.73;85.95;100654.82;109653;1251;71922;-74
2023/10/29 06:22:21;;;;;;;5.10;3.60;;;;;;;16.37;88.32;100652.02;109727;1251;62474;-75
2023/10/29 06:24:49;;;;;;;6.80;3.60;;;;;;;16.05;90.71;100652.89;109693;1251;73795;-74
2023/10/29 06:27:16;;;;;;;7.20;3.90;;;;;;;15.77;92.92;100655.73;109628;1251;60061;-75
2023/10/29 06:29:44;;;;;;;3.70;2.90;;;;;;;15.50;94.49;100650.80;109679;1251;58975;-77
2023/10/29 06:32:12;;;;;;;3.90;3.50;;;;;;;15.27;95.91;100652.12;109632;1250;72976;-75
2023/10/29 06:34:39;;;;;;;5.00;3.50;;;;;;;15.06;97.47;100653.91;109687;1251;63540;-74
2023/10/29 06:37:06;;;;;;;6.30;4.10;;;;;;;14.88;98.74;100653.80;109661;1251;71366;-75
2023/10/29 06:39:34;;;;;;;5.80;3.60;;;;;;;14.68;99.81;100657.90;109650;1251;60167;-74
2023/10/29 06:42:01;;;;;;;4.70;3.40;;;;;;;14.52;100.00;100661.59;109702;1251;58898;-74
2023/10/29 06:44:29;;;;;;;4.50;3.40;;;;;;;14.44;100.00;100662.89;109672;1250;72684;-74
2023/10/29 06:46:56;;;;;;;10.50;4.60;;;;;;;14.46;100.00;100658.70;109670;1251;62406;-73
2023/10/29 06:49:24;;;;;;;7.60;5.40;;;;;;;14.54;100.00;100659.71;109656;1251;72724;-75
2023/10/29 06:51:52;;;;;;;4.50;3.50;;;;;;;14.64;100.00;100660.17;109590;1252;60157;-74
2023/10/29 06:54:20;;;;;;;3.50;3.10;;;;;;;14.74;100.00;100653.75;109651;1250;58843;-73
2023/10/29 06:56:48;;;;;;;5.60;3.10;;;;;;;14.82;100.00;100650.38;109647;1251;72558;-74
2023/10/29 06:59:15;;;;;;;8.80;6.60;;;;;;;14.90;100.00;100655.70;109646;1249;64193;-74
2023/10/29 07:01:43;;;;;;;4.50;3.60;;;;;;;15.01;100.00;100655.22;109638;1251;72685;-74
2023/10/29 07:04:10;;;;;;;8.80;3.90;;;;;;;15.09;100.00;100656.73;109583;1249;58890;-75
2023/10/29 07:06:40;;;;;;;5.20;2.90;;;;;;;15.15;100.00;100652.21;109660;1249;60125;-74
2023/10/29 07:09:11;;;;;;;5.10;3.60;;;;;;;15.19;100.00;100655.05;109657;1250;73818;-75
2023/10/29 07:11:38;;;;;;;4.70;3.30;;;;;;;15.21;100.00;100656.84;109744;1251;62319;-77
2023/10/29 07:14:05;;;;;;;6.50;4.10;;;;;;;15.23;100.00;100662.09;109632;1251;71108;-74
2023/10/29 07:16:33;;;;;;;8.30;3.80;;;;;;;15.26;100.00;100660.80;109674;1250;59197;-75
2023/10/29 07:19:00;;;;;;;8.60;4.20;;;;;;;15.27;100.00;100662.86;109682;1250;60103;-75
2023/10/29 07:21:28;;;;;;;4.20;3.70;;;;;;;15.26;100.00;100669.61;109663;1250;73048;-75
2023/10/29 07:23:57;;;;;;;6.20;3.60;;;;;;;15.23;100.00;100674.78;109648;1251;62737;-74
2023/10/29 07:26:24;;;;;;;5.40;3.40;;;;;;;15.20;100.00;100681.35;109674;1256;72925;-74
2023/10/29 07:28:52;;;;;;;6.30;4.20;;;;;;;15.15;100.00;100678.96;109748;1251;58898;-74
2023/10/29 07:31:20;;;;;;;5.10;3.50;;;;;;;15.09;100.00;100677.33;109708;1251;58857;-74
2023/10/29 07:33:48;;;;;;;5.60;4.30;;;;;;;15.00;100.00;100682.41;109675;1250;73882;-75
2023/10/29 07:36:17;;;;;;;5.70;3.20;;;;;;;14.91;100.00;100682.52;109655;1251;63502;-73
2023/10/29 07:38:45;;;;;;;4.50;3.00;;;;;;;14.88;100.00;100683.46;109664;1251;72669;-74
2023/10/29 07:41:19;;;;;;;6.70;2.80;;;;;;;14.86;100.00;100684.02;109615;1251;58925;-75
2023/10/29 07:43:47;;;;;;;4.00;2.60;;;;;;;14.89;100.00;100692.38;109673;1251;60056;-74
2023/10/29 07:46:14;;;;;;;10.20;5.30;;;;;;;14.96;100.00;100696.07;109638;1251;72678;-74
2023/10/29 07:48:42;;;;;;;6.00;2.80;;;;;;;15.05;100.00;100701.19;109687;1250;62392;-74
2023/10/29 07:51:10;;;;;;;4.70;3.00;;;;;;;15.18;100.00;100709.20;109660;1251;71974;-74
2023/10/29 07:53:39;;;;;;;4.70;2.70;;;;;;;15.31;100.00;100715.25;109635;1251;60067;-75
2023/10/29 07:56:11;;;;;;;3.60;2.00;;;;;;;15.45;100.00;100715.70;109661;1250;60295;-73
2023/10/29 07:58:39;;;;;;;5.00;2.20;;;;;;;15.60;99.75;100720.19;109662;1251;72679;-74
2023/10/29 08:01:10;;;;;;;4.30;2.70;;;;;;;15.69;99.05;100725.06;109693;1250;65660;-73
2023/10/29 08:03:39;;;;;;;3.80;2.80;;;;;;;15.73;98.05;100731.09;109747;1251;72786;-76
2023/10/29 08:06:07;;;;;;;3.70;2.50;;;;;;;15.75;97.69;100734.50;109665;1251;58972;-75
2023/10/29 08:08:34;;;;;;;4.50;2.40;;;;;;;15.76;98.27;100736.17;109648;1250;58789;-73
2023/10/29 08:11:02;;;;;;;4.00;2.80;;;;;;;15.78;98.56;100736.25;109663;1251;72627;-76
2023/10/29 08:13:29;;;;;;;6.20;2.90;;;;;;;15.81;98.59;100738.79;109677;1251;63576;-74
2023/10/29 08:16:01;;;;;;;7.20;3.00;;;;;;;15.85;98.67;100734.57;109633;1250;72899;-73
2023/10/29 08:18:28;;;;;;;4.50;2.60;;;;;;;15.89;98.23;100739.52;109641;1251;60135;-74
2023/10/29 08:20:56;;;;;;;8.50;2.60;;;;;;;15.93;98.23;100741.51;109678;1251;61487;-75
2023/10/29 08:23:23;;;;;;;4.30;2.60;;;;;;;15.98;98.33;100749.41;109621;1251;73849;-75
2023/10/29 08:25:51;;;;;;;3.40;2.10;;;;;;;16.00;97.40;100749.77;109681;1250;63543;-74
2023/10/29 08:28:19;;;;;;;4.60;2.40;;;;;;;16.00;97.89;100749.09;109628;1251;72722;-74
2023/10/29 08:30:49;;;;;;;5.70;2.40;;;;;;;15.99;97.12;100753.58;109613;1252;58857;-73
2023/10/29 08:33:19;;;;;;;4.60;1.70;;;;;;;15.95;97.01;100755.64;109642;1250;58176;-74
2023/10/29 08:35:47;;;;;;;4.00;2.10;;;;;;;15.92;96.58;100760.15;109745;1250;73891;-76
2023/10/29 08:38:15;;;;;;;7.50;2.40;;;;;;;15.89;96.82;100761.25;109707;1251;63851;-74
2023/10/29 08:40:42;;;;;;;5.40;2.30;;;;;;;15.85;97.17;100767.17;109650;1251;71412;-76
2023/10/29 08:43:10;;;;;;;4.70;1.90;;;;;;;15.81;97.34;100764.31;109630;1253;58840;-77
2023/10/29 08:45:37;;;;;;;3.00;2.00;;;;;;;15.77;97.28;100769.23;109674;1251;59221;-76
2023/10/29 08:48:13;;;;;;;;;;;;;;;15.73;97.41;100779.08;109651;1251;73798;-76
2023/10/29 08:50:41;;;;;;;3.60;2.10;;;;;;;15.71;98.24;100777.09;109643;1251;64570;-75
2023/10/29 08:53:08;;;;;;;4.00;3.10;;;;;;;15.71;98.77;100772.52;109624;1249;71456;-74
2023/10/29 08:55:36;;;;;;;3.80;2.50;;;;;;;15.72;99.35;100777.59;109576;1252;60166;-77
2023/10/29 08:58:03;;;;;;;5.80;2.30;;;;;;;15.73;99.61;100774.11;109672;1249;59962;-75
2023/10/29 09:00:32;;;;;;;6.70;2.50;;;;;;;15.77;99.64;100776.27;109679;1250;72680;-76
2023/10/29 09:03:15;;;;;;;2.50;2.10;;;;;;;15.83;99.64;100775.50;109648;1251;63582;-75
2023/10/29 09:05:43;;;;;;;4.40;2.70;;;;;;;15.87;99.94;100775.35;109617;1252;72645;-77
2023/10/29 09:08:12;;;;;;;6.10;3.40;;;;;;;15.92;100.00;100767.91;109603;1250;59493;-77
2023/10/29 09:10:42;;;;;;;5.20;2.30;;;;;;;15.98;100.00;100773.20;109693;1250;58775;-76
2023/10/29 09:13:19;;;;;;;2.90;2.30;;;;;;;16.04;99.87;100771.30;109653;1249;72581;-76
2023/10/29 09:15:48;;;;;;;7.10;3.30;;;;;;;16.11;99.32;100773.73;109619;1251;62753;-74
2023/10/29 09:18:16;;;;;;;8.30;3.50;;;;;;;16.19;98.73;100771.69;109621;1251;71047;-76
2023/10/29 09:20:46;;;;;;;4.40;2.80;;;;;;;16.26;98.61;100775.88;109624;1253;60160;-78
2023/10/29 09:23:17;;;;;;;4.60;2.70;;;;;;;16.36;97.94;100773.52;109640;1254;60473;-77
2023/10/29 09:25:45;;;;;;;8.50;4.90;;;;;;;16.45;97.12;100773.99;109782;1251;73841;-75
2023/10/29 09:28:13;;;;;;;22.90;13.90;;;;;;;16.53;96.60;100773.48;109675;1250;63547;-76
2023/10/29 09:30:41;;;;;;;12.50;7.30;;;;;;;16.59;95.13;100772.63;109698;1251;71637;-77
2023/10/29 09:33:09;;;;;;;7.20;4.20;;;;;;;16.67;95.01;100768.29;109610;1251;60113;-77
2023/10/29 09:35:40;;;;;;;8.10;5.50;;;;;;;16.77;94.82;100769.76;109647;1250;60191;-77
2023/10/29 09:38:10;;;;;;;12.40;4.40;;;;;;;16.86;93.95;100774.48;109628;1251;73796;-73
2023/10/29 09:40:38;;;;;;;7.30;3.70;;;;;;;16.90;93.64;100777.30;109620;1250;63575;-75
2023/10/29 09:43:08;;;;;;;6.90;4.20;;;;;;;16.94;93.23;100772.54;109624;1251;70436;-76
2023/10/29 09:45:45;;;;;;;8.70;5.20;;;;;;;16.97;93.06;100777.63;109602;1254;60041;-75
2023/10/29 09:48:16;;;;;;;10.10;6.00;;;;;;;16.98;92.77;100784.98;109680;1251;58756;-74
2023/10/29 09:50:44;;;;;;;9.40;5.80;;;;;;;16.98;93.00;100786.89;109678;1251;72642;-74
2023/10/29 09:53:12;;;;;;;10.30;6.70;;;;;;;16.99;93.31;100788.07;109647;1250;62596;-74
2023/10/29 09:55:40;;;;;;;11.50;6.60;;;;;;;17.00;93.64;100798.05;109606;1251;71356;-75
2023/10/29 09:58:07;;;;;;;18.40;8.20;;;;;;;17.01;93.65;100802.38;109578;1254;59425;-74
2023/10/29 10:00:36;;;;;;;17.50;10.40;;;;;;;16.99;93.03;100802.56;109721;1251;58775;-76
2023/10/29 10:03:03;;;;;;;12.30;6.50;;;;;;;16.93;94.14;100803.56;109740;1250;72680;-76
2023/10/29 10:05:32;;;;;;;13.20;7.50;;;;;;;16.88;94.82;100802.10;109689;1249;62271;-74
2023/10/29 10:08:00;;;;;;;11.40;6.80;;;;;;;16.85;94.72;100799.50;109582;1250;72730;-75
2023/10/29 10:10:47;;;;;;;13.90;6.40;;;;;;;16.82;94.89;100792.82;109598;1252;58762;-74
2023/10/29 10:15:20;;;;;;;12.70;7.80;;;;;;;16.75;94.58;100793.56;102805;1293;600473;-77
2023/10/29 10:17:58;;;;;;;15.00;7.30;;;;;;;16.70;95.16;100795.72;104893;1267;59401;-77
2023/10/29 10:20:27;;;;;;;12.40;7.40;;;;;;;16.72;95.78;100788.53;104899;1264;60147;-76
2023/10/29 10:22:58;;;;;;;15.00;7.70;;;;;;;16.83;96.15;100787.63;104894;1264;70018;-75
2023/10/29 10:25:27;;;;;;;28.00;20.20;;;;;;;17.10;95.99;100789.64;105045;1264;62471;-79
2023/10/29 10:27:57;;;;;;;14.90;8.70;;;;;;;17.45;94.75;100787.11;104850;1272;214431;-73
2023/10/29 10:30:31;;;;;;;13.60;9.30;;;;;;;17.83;91.47;100782.59;104952;1270;60155;-76
2023/10/29 10:33:14;;;;;;;9.00;5.70;;;;;;;18.18;87.49;100786.93;104997;1264;59980;-76
2023/10/29 10:35:54;;;;;;;10.40;5.20;;;;;;;18.41;81.68;100790.25;105233;1267;72309;-76
2023/10/29 10:38:25;;;;;;;5.90;3.80;;;;;;;18.50;78.29;100785.48;105803;1257;63558;-77
2023/10/29 10:40:59;;;;;;;8.00;4.60;;;;;;;18.44;76.59;100792.73;105803;1257;72316;-78
2023/10/29 10:43:28;;;;;;;4.30;3.40;;;;;;;18.31;77.87;100794.33;105902;1254;59637;-75
2023/10/29 10:45:55;;;;;;;4.10;2.90;;;;;;;18.18;78.51;100793.83;105697;1251;59538;-76
2023/10/29 10:48:23;;;;;;;8.30;3.60;;;;;;;18.10;78.22;100793.52;105681;1251;73734;-78
2023/10/29 10:50:53;;;;;;;6.50;3.00;;;;;;;18.02;77.49;100804.70;105749;1251;62305;-77
2023/10/29 10:53:20;;;;;;;3.10;2.10;;;;;;;17.91;77.35;100804.92;105759;1254;71688;-77
2023/10/29 10:55:48;;;;;;;4.10;2.40;;;;;;;17.78;78.74;100804.98;105688;1260;60256;-75
2023/10/29 10:58:31;;;;;;;4.20;2.40;;;;;;;17.67;79.02;100809.34;105807;1251;59593;-76
2023/10/29 11:00:59;;;;;;;7.60;2.80;;;;;;;17.57;80.72;100809.61;105852;1256;73519;-75
2023/10/29 11:03:32;;;;;;;13.40;3.30;;;;;;;17.47;79.27;100811.38;105660;1251;63709;-78
2023/10/29 11:06:01;;;;;;;;;;;;;;;17.37;80.68;100809.55;105946;1254;71547;-75
2023/10/29 11:08:28;;;;;;;9.60;3.60;;;;;;;17.35;81.93;100807.98;105793;1257;59787;-77
2023/10/29 11:10:57;;;;;;;8.50;3.40;;;;;;;17.36;82.12;100804.50;105729;1251;60756;-75
2023/10/29 11:13:26;;;;;;;9.30;4.40;;;;;;;17.39;81.06;100799.69;105672;1257;73859;-78
2023/10/29 11:15:55;;;;;;;11.10;4.10;;;;;;;17.40;82.68;100804.01;109628;1253;62359;-75
2023/10/29 11:18:28;;;;;;;10.90;4.00;;;;;;;17.43;82.87;100803.30;109556;1253;72668;-75
2023/10/29 11:20:56;;;;;;;8.80;3.00;;;;;;;17.46;82.57;100801.27;109623;1253;58757;-74
2023/10/29 11:23:27;;;;;;;10.70;3.20;;;;;;;17.47;80.29;100800.10;109605;1253;58736;-76